Marlinton, WV (24954)

8:03 AM EST on December 05, 2016 (GMT -0500)
Seebert | | Change Station

Elev 2195 ft 38.12 °N, 80.18 °W | Updated 9 seconds ago

Overcast
Overcast
40.6 °F
Feels Like 41 °F
N
0.0
Wind Variable Wind from North
Gusts 0.0 mph

Today
High -- | Low -- °F
--% Chance of Precip.
Yesterday
High -- | Low -- °F
Precip. -- in
Pressure 29.92 in
Visibility 10.0 miles
Clouds Overcast 1300 ft
Windchill 41 °F
Dew Point 40 °F
Humidity 99%
Rainfall 0.05 in
Snow Depth Not available.
7:22 AM 5:00 PM
Waxing Crescent, 31% visible
METAR KHSP 051255Z AUTO 29017G24KT 10SM OVC013 03/03 A2992 RMK AO2
Pressure 29.92 in
Visibility 10.0 miles
Clouds Overcast 1300 ft
Windchill 41 °F
Dew Point 40 °F
Humidity 99%
Rainfall 0.05 in
Snow Depth Not available.
7:22 AM 5:00 PM
Waxing Crescent, 31% visible
METAR KHSP 051255Z AUTO 29017G24KT 10SM OVC013 03/03 A2992 RMK AO2

10-Day Weather Forecast

Almanac

Astronomy

Dec. 05, 2016 Rise Set
Actual Time
Civil Twilight
Nautical Twilight
Astronomical Twilight
Moon
Length of Visible Light
Length of Day
Tomorrow will be .
, % of the Moon is Illuminated

Today's Extremes

State Highs State Lows

Community

WunderPhotos

Upload Photos

1,955,780 photos uploaded!

WunderBlog® & News

Nearby

Air Quality

  Air Quality AQ Index Pollutant
Not available.

Snow Depth

Station Depth Elevation

Earthquake Activity

City Distance Mag. Time & Date
Minimum magnitude displayed is 2.5.

Coastal Water Temperatures

Place Temperature

Stations

Nearby Weather Stations

Station Location Temp. Windchill Dew Point Humidity Wind Precip. Elev Updated Type
                   

Watches & Warnings

There are currently no watches in effect.